sensor_id;sensor_type;location;lat;lon;timestamp;pressure;altitude;pressure_sealevel;temperature;humidity
52935;BME280;38802;50.198;19.796;2023-02-26T00:01:43;94835.21;;;-0.42;92.37
52935;BME280;38802;50.198;19.796;2023-02-26T00:04:11;94834.75;;;-0.43;92.63
52935;BME280;38802;50.198;19.796;2023-02-26T00:06:40;94838.91;;;-0.42;92.21
52935;BME280;38802;50.198;19.796;2023-02-26T00:09:23;94843.92;;;-0.40;92.38
52935;BME280;38802;50.198;19.796;2023-02-26T00:11:51;94847.42;;;-0.39;92.72
52935;BME280;38802;50.198;19.796;2023-02-26T00:14:19;94851.50;;;-0.38;92.24
52935;BME280;38802;50.198;19.796;2023-02-26T00:19:39;94858.66;;;-0.36;92.44
52935;BME280;38802;50.198;19.796;2023-02-26T00:22:07;94861.81;;;-0.37;92.06
52935;BME280;38802;50.198;19.796;2023-02-26T00:24:35;94863.20;;;-0.40;91.98
52935;BME280;38802;50.198;19.796;2023-02-26T00:27:03;94865.98;;;-0.44;92.24
52935;BME280;38802;50.198;19.796;2023-02-26T00:29:31;94868.57;;;-0.44;91.69
52935;BME280;38802;50.198;19.796;2023-02-26T00:32:00;94876.36;;;-0.46;91.68
52935;BME280;38802;50.198;19.796;2023-02-26T00:34:28;94883.42;;;-0.50;91.92
52935;BME280;38802;50.198;19.796;2023-02-26T00:42:06;94902.95;;;-0.48;91.73
52935;BME280;38802;50.198;19.796;2023-02-26T00:44:34;94909.46;;;-0.49;92.05
52935;BME280;38802;50.198;19.796;2023-02-26T00:50:12;94916.97;;;-0.55;91.52
52935;BME280;38802;50.198;19.796;2023-02-26T00:55:20;94920.66;;;-0.54;91.86
52935;BME280;38802;50.198;19.796;2023-02-26T00:57:48;94924.06;;;-0.53;91.68
52935;BME280;38802;50.198;19.796;2023-02-26T01:00:16;94928.27;;;-0.58;91.71
52935;BME280;38802;50.198;19.796;2023-02-26T01:02:45;94929.52;;;-0.59;91.86
52935;BME280;38802;50.198;19.796;2023-02-26T01:05:14;94930.27;;;-0.60;91.32
52935;BME280;38802;50.198;19.796;2023-02-26T01:10:35;94931.90;;;-0.62;91.22
52935;BME280;38802;50.198;19.796;2023-02-26T01:13:03;94936.84;;;-0.65;91.28
52935;BME280;38802;50.198;19.796;2023-02-26T01:15:31;94933.38;;;-0.64;91.30
52935;BME280;38802;50.198;19.796;2023-02-26T01:20:42;94932.27;;;-0.66;90.91
52935;BME280;38802;50.198;19.796;2023-02-26T01:23:23;94927.59;;;-0.67;91.10
52935;BME280;38802;50.198;19.796;2023-02-26T01:25:57;94925.66;;;-0.69;90.87
52935;BME280;38802;50.198;19.796;2023-02-26T01:28:26;94927.91;;;-0.70;91.19
52935;BME280;38802;50.198;19.796;2023-02-26T01:30:58;94926.70;;;-0.69;91.31
52935;BME280;38802;50.198;19.796;2023-02-26T01:33:34;94923.04;;;-0.71;91.28
52935;BME280;38802;50.198;19.796;2023-02-26T01:36:08;94924.42;;;-0.71;90.86
52935;BME280;38802;50.198;19.796;2023-02-26T01:49:45;94928.20;;;-0.77;91.22
52935;BME280;38802;50.198;19.796;2023-02-26T01:55:21;94941.06;;;-0.78;90.93
52935;BME280;38802;50.198;19.796;2023-02-26T01:57:51;94947.95;;;-0.80;91.26
52935;BME280;38802;50.198;19.796;2023-02-26T02:00:20;94949.34;;;-0.80;91.23
52935;BME280;38802;50.198;19.796;2023-02-26T02:02:49;94954.98;;;-0.80;90.95
52935;BME280;38802;50.198;19.796;2023-02-26T02:05:25;94954.27;;;-0.79;90.79
52935;BME280;38802;50.198;19.796;2023-02-26T02:07:56;94959.38;;;-0.79;90.94
52935;BME280;38802;50.198;19.796;2023-02-26T02:10:26;94960.08;;;-0.80;90.71
52935;BME280;38802;50.198;19.796;2023-02-26T02:16:16;94965.58;;;-0.83;90.70
52935;BME280;38802;50.198;19.796;2023-02-26T02:27:39;94967.70;;;-0.91;90.79
52935;BME280;38802;50.198;19.796;2023-02-26T02:30:33;94970.63;;;-0.95;90.51
52935;BME280;38802;50.198;19.796;2023-02-26T02:33:09;94974.18;;;-0.97;90.65
52935;BME280;38802;50.198;19.796;2023-02-26T02:35:43;94975.49;;;-0.97;90.30
52935;BME280;38802;50.198;19.796;2023-02-26T02:38:24;94983.06;;;-0.98;90.48
52935;BME280;38802;50.198;19.796;2023-02-26T02:41:01;94989.80;;;-0.96;90.20
52935;BME280;38802;50.198;19.796;2023-02-26T02:43:32;94996.22;;;-0.95;90.40
52935;BME280;38802;50.198;19.796;2023-02-26T02:46:09;95003.09;;;-0.93;90.44
52935;BME280;38802;50.198;19.796;2023-02-26T02:48:43;95007.50;;;-0.96;89.94
52935;BME280;38802;50.198;19.796;2023-02-26T02:51:22;95016.19;;;-0.99;90.36
52935;BME280;38802;50.198;19.796;2023-02-26T02:53:56;95019.45;;;-1.02;90.02
52935;BME280;38802;50.198;19.796;2023-02-26T02:56:29;95026.21;;;-1.01;90.09
52935;BME280;38802;50.198;19.796;2023-02-26T02:59:09;95030.23;;;-1.00;90.27
52935;BME280;38802;50.198;19.796;2023-02-26T03:01:39;95027.14;;;-1.02;89.72
52935;BME280;38802;50.198;19.796;2023-02-26T03:04:11;95023.60;;;-1.06;89.38
52935;BME280;38802;50.198;19.796;2023-02-26T03:06:41;95025.56;;;-1.10;89.66
52935;BME280;38802;50.198;19.796;2023-02-26T03:09:10;95017.04;;;-1.13;89.38
52935;BME280;38802;50.198;19.796;2023-02-26T03:11:41;95021.74;;;-1.18;89.51
52935;BME280;38802;50.198;19.796;2023-02-26T03:14:11;95025.13;;;-1.24;88.77
52935;BME280;38802;50.198;19.796;2023-02-26T03:19:31;95027.83;;;-1.29;89.12
52935;BME280;38802;50.198;19.796;2023-02-26T03:22:13;95033.16;;;-1.31;88.83
52935;BME280;38802;50.198;19.796;2023-02-26T03:25:09;95037.73;;;-1.30;88.96
52935;BME280;38802;50.198;19.796;2023-02-26T03:30:21;95040.16;;;-1.31;89.14
52935;BME280;38802;50.198;19.796;2023-02-26T03:33:17;95047.24;;;-1.33;89.01
52935;BME280;38802;50.198;19.796;2023-02-26T03:36:03;95055.58;;;-1.36;88.44
52935;BME280;38802;50.198;19.796;2023-02-26T03:38:48;95059.98;;;-1.41;88.48
52935;BME280;38802;50.198;19.796;2023-02-26T03:41:24;95071.55;;;-1.44;88.11
52935;BME280;38802;50.198;19.796;2023-02-26T03:44:00;95074.80;;;-1.44;88.33
52935;BME280;38802;50.198;19.796;2023-02-26T03:46:38;95082.70;;;-1.45;88.26
52935;BME280;38802;50.198;19.796;2023-02-26T03:49:12;95090.77;;;-1.47;88.33
52935;BME280;38802;50.198;19.796;2023-02-26T03:51:42;95096.68;;;-1.46;88.32
52935;BME280;38802;50.198;19.796;2023-02-26T03:54:34;95097.61;;;-1.44;88.39
52935;BME280;38802;50.198;19.796;2023-02-26T03:57:30;95102.11;;;-1.42;88.51
52935;BME280;38802;50.198;19.796;2023-02-26T04:00:18;95109.86;;;-1.41;88.49
52935;BME280;38802;50.198;19.796;2023-02-26T04:06:03;95111.36;;;-1.40;87.94
52935;BME280;38802;50.198;19.796;2023-02-26T04:08:32;95113.01;;;-1.39;88.12
52935;BME280;38802;50.198;19.796;2023-02-26T04:11:09;95115.35;;;-1.38;87.80
52935;BME280;38802;50.198;19.796;2023-02-26T04:13:38;95118.40;;;-1.44;87.62
52935;BME280;38802;50.198;19.796;2023-02-26T04:16:06;95120.95;;;-1.47;87.89
52935;BME280;38802;50.198;19.796;2023-02-26T04:18:34;95125.40;;;-1.45;87.51
52935;BME280;38802;50.198;19.796;2023-02-26T04:21:02;95131.88;;;-1.48;87.47
52935;BME280;38802;50.198;19.796;2023-02-26T04:23:31;95135.60;;;-1.47;87.53
52935;BME280;38802;50.198;19.796;2023-02-26T04:26:00;95139.17;;;-1.47;87.44
52935;BME280;38802;50.198;19.796;2023-02-26T04:28:29;95144.90;;;-1.46;87.63
52935;BME280;38802;50.198;19.796;2023-02-26T04:30:57;95146.09;;;-1.43;87.40
52935;BME280;38802;50.198;19.796;2023-02-26T04:33:25;95149.55;;;-1.44;87.35
52935;BME280;38802;50.198;19.796;2023-02-26T04:35:54;95146.90;;;-1.42;87.09
52935;BME280;38802;50.198;19.796;2023-02-26T04:38:22;95153.16;;;-1.41;87.23
52935;BME280;38802;50.198;19.796;2023-02-26T04:40:50;95152.58;;;-1.43;87.30
52935;BME280;38802;50.198;19.796;2023-02-26T04:43:19;95156.80;;;-1.43;87.02
52935;BME280;38802;50.198;19.796;2023-02-26T04:45:55;95156.18;;;-1.44;87.27
52935;BME280;38802;50.198;19.796;2023-02-26T04:48:23;95161.16;;;-1.41;87.17
52935;BME280;38802;50.198;19.796;2023-02-26T04:50:51;95163.42;;;-1.42;87.09
52935;BME280;38802;50.198;19.796;2023-02-26T04:53:19;95168.52;;;-1.45;86.97
52935;BME280;38802;50.198;19.796;2023-02-26T04:55:50;95177.98;;;-1.44;86.85
52935;BME280;38802;50.198;19.796;2023-02-26T04:58:19;95182.27;;;-1.47;86.75
52935;BME280;38802;50.198;19.796;2023-02-26T05:00:49;95189.93;;;-1.50;86.88
52935;BME280;38802;50.198;19.796;2023-02-26T05:03:18;95184.44;;;-1.56;86.50
52935;BME280;38802;50.198;19.796;2023-02-26T05:05:46;95177.38;;;-1.58;86.62
52935;BME280;38802;50.198;19.796;2023-02-26T05:08:15;95181.05;;;-1.60;86.68
52935;BME280;38802;50.198;19.796;2023-02-26T05:10:44;95180.88;;;-1.63;86.67
52935;BME280;38802;50.198;19.796;2023-02-26T05:13:12;95189.73;;;-1.63;87.02
52935;BME280;38802;50.198;19.796;2023-02-26T05:15:40;95195.64;;;-1.62;86.95
52935;BME280;38802;50.198;19.796;2023-02-26T05:18:08;95200.89;;;-1.62;86.84
52935;BME280;38802;50.198;19.796;2023-02-26T05:20:36;95205.29;;;-1.61;86.93
52935;BME280;38802;50.198;19.796;2023-02-26T05:23:04;95210.50;;;-1.60;86.55
52935;BME280;38802;50.198;19.796;2023-02-26T05:25:32;95212.13;;;-1.58;87.01
52935;BME280;38802;50.198;19.796;2023-02-26T05:28:01;95219.94;;;-1.57;86.83
52935;BME280;38802;50.198;19.796;2023-02-26T05:30:29;95222.06;;;-1.59;86.72
52935;BME280;38802;50.198;19.796;2023-02-26T05:32:57;95228.60;;;-1.64;86.49
52935;BME280;38802;50.198;19.796;2023-02-26T05:35:25;95229.63;;;-1.67;86.90
52935;BME280;38802;50.198;19.796;2023-02-26T05:37:54;95230.59;;;-1.70;86.66
52935;BME280;38802;50.198;19.796;2023-02-26T05:40:23;95235.15;;;-1.72;86.92
52935;BME280;38802;50.198;19.796;2023-02-26T05:42:51;95238.94;;;-1.73;86.68
52935;BME280;38802;50.198;19.796;2023-02-26T05:45:19;95243.63;;;-1.75;86.68
52935;BME280;38802;50.198;19.796;2023-02-26T05:47:46;95249.54;;;-1.78;86.78
52935;BME280;38802;50.198;19.796;2023-02-26T05:50:14;95255.29;;;-1.80;86.47
52935;BME280;38802;50.198;19.796;2023-02-26T05:52:42;95260.60;;;-1.85;86.69
52935;BME280;38802;50.198;19.796;2023-02-26T05:55:10;95267.08;;;-1.85;86.68
52935;BME280;38802;50.198;19.796;2023-02-26T05:57:38;95278.39;;;-1.86;86.59
52935;BME280;38802;50.198;19.796;2023-02-26T06:00:08;95283.68;;;-1.86;86.43
52935;BME280;38802;50.198;19.796;2023-02-26T06:02:40;95293.34;;;-1.89;86.65
52935;BME280;38802;50.198;19.796;2023-02-26T06:05:08;95297.42;;;-1.89;86.62
52935;BME280;38802;50.198;19.796;2023-02-26T06:07:36;95303.90;;;-1.90;86.54
52935;BME280;38802;50.198;19.796;2023-02-26T06:10:06;95306.23;;;-1.88;86.46
52935;BME280;38802;50.198;19.796;2023-02-26T06:12:35;95309.25;;;-1.87;86.58
52935;BME280;38802;50.198;19.796;2023-02-26T06:15:04;95317.31;;;-1.85;86.70
52935;BME280;38802;50.198;19.796;2023-02-26T06:17:32;95318.48;;;-1.84;86.44
52935;BME280;38802;50.198;19.796;2023-02-26T06:20:00;95321.76;;;-1.82;86.65
52935;BME280;38802;50.198;19.796;2023-02-26T06:22:30;95328.40;;;-1.79;86.83
52935;BME280;38802;50.198;19.796;2023-02-26T06:24:58;95329.73;;;-1.78;86.56
52935;BME280;38802;50.198;19.796;2023-02-26T06:27:26;95332.25;;;-1.73;86.46
52935;BME280;38802;50.198;19.796;2023-02-26T06:29:54;95340.58;;;-1.69;86.56
52935;BME280;38802;50.198;19.796;2023-02-26T06:32:22;95341.67;;;-1.67;86.44
52935;BME280;38802;50.198;19.796;2023-02-26T06:34:50;95341.60;;;-1.69;86.53
52935;BME280;38802;50.198;19.796;2023-02-26T06:37:18;95344.63;;;-1.69;86.35
52935;BME280;38802;50.198;19.796;2023-02-26T06:39:46;95344.98;;;-1.65;86.42
52935;BME280;38802;50.198;19.796;2023-02-26T06:42:14;95347.63;;;-1.67;86.47
52935;BME280;38802;50.198;19.796;2023-02-26T06:44:42;95349.39;;;-1.65;86.60
52935;BME280;38802;50.198;19.796;2023-02-26T06:47:10;95351.84;;;-1.63;86.33
52935;BME280;38802;50.198;19.796;2023-02-26T06:49:38;95351.86;;;-1.63;86.13
52935;BME280;38802;50.198;19.796;2023-02-26T06:52:06;95358.66;;;-1.63;86.74
52935;BME280;38802;50.198;19.796;2023-02-26T06:54:34;95364.69;;;-1.61;86.67
52935;BME280;38802;50.198;19.796;2023-02-26T06:57:02;95369.88;;;-1.55;86.64
52935;BME280;38802;50.198;19.796;2023-02-26T06:59:30;95375.16;;;-1.52;86.70
52935;BME280;38802;50.198;19.796;2023-02-26T07:01:58;95373.31;;;-1.49;86.66
52935;BME280;38802;50.198;19.796;2023-02-26T07:04:26;95376.75;;;-1.46;86.63
52935;BME280;38802;50.198;19.796;2023-02-26T07:06:54;95376.33;;;-1.45;86.36
52935;BME280;38802;50.198;19.796;2023-02-26T07:09:22;95381.52;;;-1.46;86.47
52935;BME280;38802;50.198;19.796;2023-02-26T07:11:50;95383.77;;;-1.47;86.24
52935;BME280;38802;50.198;19.796;2023-02-26T07:14:18;95384.17;;;-1.45;86.66
52935;BME280;38802;50.198;19.796;2023-02-26T07:16:46;95386.44;;;-1.43;86.56
52935;BME280;38802;50.198;19.796;2023-02-26T07:19:14;95389.68;;;-1.43;86.47
52935;BME280;38802;50.198;19.796;2023-02-26T07:21:46;95391.80;;;-1.48;86.06
52935;BME280;38802;50.198;19.796;2023-02-26T07:24:15;95396.06;;;-1.51;86.48
52935;BME280;38802;50.198;19.796;2023-02-26T07:26:43;95395.33;;;-1.54;86.15
52935;BME280;38802;50.198;19.796;2023-02-26T07:29:11;95399.30;;;-1.62;86.28
52935;BME280;38802;50.198;19.796;2023-02-26T07:31:39;95401.41;;;-1.63;86.36
52935;BME280;38802;50.198;19.796;2023-02-26T07:34:08;95407.52;;;-1.63;86.46
52935;BME280;38802;50.198;19.796;2023-02-26T07:36:36;95409.69;;;-1.62;86.25
52935;BME280;38802;50.198;19.796;2023-02-26T07:39:04;95409.59;;;-1.60;86.34
52935;BME280;38802;50.198;19.796;2023-02-26T07:41:32;95410.55;;;-1.62;86.26
52935;BME280;38802;50.198;19.796;2023-02-26T07:44:00;95413.55;;;-1.61;86.44
52935;BME280;38802;50.198;19.796;2023-02-26T07:46:28;95420.87;;;-1.57;86.26
52935;BME280;38802;50.198;19.796;2023-02-26T07:48:56;95421.73;;;-1.53;85.94
52935;BME280;38802;50.198;19.796;2023-02-26T07:51:24;95426.15;;;-1.50;86.17
52935;BME280;38802;50.198;19.796;2023-02-26T07:53:53;95422.36;;;-1.46;85.80
52935;BME280;38802;50.198;19.796;2023-02-26T07:56:21;95427.45;;;-1.42;85.83
52935;BME280;38802;50.198;19.796;2023-02-26T07:58:49;95431.42;;;-1.36;85.65
52935;BME280;38802;50.198;19.796;2023-02-26T08:01:17;95435.59;;;-1.30;85.19
52935;BME280;38802;50.198;19.796;2023-02-26T08:03:45;95431.78;;;-1.25;84.51
52935;BME280;38802;50.198;19.796;2023-02-26T08:06:13;95434.40;;;-1.31;84.14
52935;BME280;38802;50.198;19.796;2023-02-26T08:08:41;95436.17;;;-1.28;84.18
52935;BME280;38802;50.198;19.796;2023-02-26T08:11:10;95434.98;;;-1.21;84.25
52935;BME280;38802;50.198;19.796;2023-02-26T08:13:38;95445.75;;;-1.18;83.44
52935;BME280;38802;50.198;19.796;2023-02-26T08:16:06;95452.52;;;-1.17;83.27
52935;BME280;38802;50.198;19.796;2023-02-26T08:18:34;95451.29;;;-1.13;83.34
52935;BME280;38802;50.198;19.796;2023-02-26T08:21:02;95448.47;;;-1.04;83.21
52935;BME280;38802;50.198;19.796;2023-02-26T08:23:30;95453.30;;;-1.02;82.88
52935;BME280;38802;50.198;19.796;2023-02-26T08:26:04;95459.54;;;-1.01;82.41
52935;BME280;38802;50.198;19.796;2023-02-26T08:28:33;95462.23;;;-0.93;83.55
52935;BME280;38802;50.198;19.796;2023-02-26T08:31:01;95466.70;;;-0.79;82.86
52935;BME280;38802;50.198;19.796;2023-02-26T08:33:30;95472.20;;;-0.71;82.43
52935;BME280;38802;50.198;19.796;2023-02-26T08:35:58;95476.11;;;-0.73;81.93
52935;BME280;38802;50.198;19.796;2023-02-26T08:38:28;95484.95;;;-0.79;82.00
52935;BME280;38802;50.198;19.796;2023-02-26T08:40:57;95484.91;;;-0.86;81.94
52935;BME280;38802;50.198;19.796;2023-02-26T08:43:25;95486.23;;;-0.81;82.47
52935;BME280;38802;50.198;19.796;2023-02-26T08:45:54;95485.13;;;-0.73;81.93
52935;BME280;38802;50.198;19.796;2023-02-26T08:48:23;95480.63;;;-0.58;81.85
52935;BME280;38802;50.198;19.796;2023-02-26T08:50:51;95487.52;;;-0.47;81.42
52935;BME280;38802;50.198;19.796;2023-02-26T08:53:19;95491.91;;;-0.38;80.72
52935;BME280;38802;50.198;19.796;2023-02-26T08:55:48;95494.79;;;-0.41;79.84
52935;BME280;38802;50.198;19.796;2023-02-26T08:58:18;95504.19;;;-0.46;79.95
52935;BME280;38802;50.198;19.796;2023-02-26T09:00:46;95516.23;;;-0.40;79.66
52935;BME280;38802;50.198;19.796;2023-02-26T09:03:14;95520.59;;;-0.29;78.58
52935;BME280;38802;50.198;19.796;2023-02-26T09:05:43;95528.07;;;-0.21;79.13
52935;BME280;38802;50.198;19.796;2023-02-26T09:08:11;95533.88;;;-0.11;79.52
52935;BME280;38802;50.198;19.796;2023-02-26T09:10:42;95531.37;;;-0.09;79.03
52935;BME280;38802;50.198;19.796;2023-02-26T09:13:10;95535.05;;;-0.11;79.54
52935;BME280;38802;50.198;19.796;2023-02-26T09:15:38;95540.99;;;-0.14;79.84
52935;BME280;38802;50.198;19.796;2023-02-26T09:18:06;95547.48;;;-0.17;80.06
52935;BME280;38802;50.198;19.796;2023-02-26T09:20:38;95558.21;;;-0.27;79.36
52935;BME280;38802;50.198;19.796;2023-02-26T09:23:06;95561.28;;;-0.37;79.64
52935;BME280;38802;50.198;19.796;2023-02-26T09:25:34;95568.81;;;-0.48;79.79
52935;BME280;38802;50.198;19.796;2023-02-26T09:28:02;95570.88;;;-0.55;79.74
52935;BME280;38802;50.198;19.796;2023-02-26T09:30:31;95575.11;;;-0.61;79.49
52935;BME280;38802;50.198;19.796;2023-02-26T09:32:59;95575.59;;;-0.68;79.68
52935;BME280;38802;50.198;19.796;2023-02-26T09:35:27;95578.39;;;-0.69;80.24
52935;BME280;38802;50.198;19.796;2023-02-26T09:37:55;95585.05;;;-0.66;79.88
52935;BME280;38802;50.198;19.796;2023-02-26T09:40:48;95587.50;;;-0.64;80.19
52935;BME280;38802;50.198;19.796;2023-02-26T09:46:22;95604.55;;;-0.74;80.22
52935;BME280;38802;50.198;19.796;2023-02-26T09:51:34;95602.59;;;-0.69;80.40
52935;BME280;38802;50.198;19.796;2023-02-26T09:54:13;95601.59;;;-0.62;80.21
52935;BME280;38802;50.198;19.796;2023-02-26T09:56:43;95609.00;;;-0.50;80.30
52935;BME280;38802;50.198;19.796;2023-02-26T09:59:11;95612.09;;;-0.39;79.96
52935;BME280;38802;50.198;19.796;2023-02-26T10:01:48;95614.61;;;-0.28;79.26
52935;BME280;38802;50.198;19.796;2023-02-26T10:04:57;95615.88;;;-0.19;79.57
52935;BME280;38802;50.198;19.796;2023-02-26T10:07:50;95611.02;;;-0.08;79.10
52935;BME280;38802;50.198;19.796;2023-02-26T10:13:35;95603.91;;;0.15;79.06
52935;BME280;38802;50.198;19.796;2023-02-26T10:16:26;95607.68;;;0.31;79.25
52935;BME280;38802;50.198;19.796;2023-02-26T10:19:26;95606.73;;;0.36;78.19
52935;BME280;38802;50.198;19.796;2023-02-26T10:22:10;95612.20;;;0.30;78.19
52935;BME280;38802;50.198;19.796;2023-02-26T10:24:43;95616.61;;;0.23;77.21
52935;BME280;38802;50.198;19.796;2023-02-26T10:27:34;95620.02;;;0.20;78.37
52935;BME280;38802;50.198;19.796;2023-02-26T10:32:53;95622.15;;;0.32;77.75
52935;BME280;38802;50.198;19.796;2023-02-26T10:35:26;95625.55;;;0.36;77.22
52935;BME280;38802;50.198;19.796;2023-02-26T10:38:07;95628.55;;;0.41;77.70
52935;BME280;38802;50.198;19.796;2023-02-26T10:40:49;95641.38;;;0.44;77.04
52935;BME280;38802;50.198;19.796;2023-02-26T10:43:23;95647.94;;;0.39;77.08
52935;BME280;38802;50.198;19.796;2023-02-26T10:51:20;95670.64;;;0.09;76.47
52935;BME280;38802;50.198;19.796;2023-02-26T10:54:30;95667.60;;;-0.02;76.55
52935;BME280;38802;50.198;19.796;2023-02-26T10:57:00;95675.52;;;-0.14;76.74
52935;BME280;38802;50.198;19.796;2023-02-26T10:59:28;95682.58;;;-0.22;76.72
52935;BME280;38802;50.198;19.796;2023-02-26T11:01:58;95683.05;;;-0.31;77.23
52935;BME280;38802;50.198;19.796;2023-02-26T11:04:27;95684.33;;;-0.37;77.46
52935;BME280;38802;50.198;19.796;2023-02-26T11:07:02;95686.05;;;-0.45;77.27
52935;BME280;38802;50.198;19.796;2023-02-26T11:09:43;95687.46;;;-0.49;77.78
52935;BME280;38802;50.198;19.796;2023-02-26T11:12:13;95691.13;;;-0.51;77.86
52935;BME280;38802;50.198;19.796;2023-02-26T11:14:44;95693.95;;;-0.49;78.13
52935;BME280;38802;50.198;19.796;2023-02-26T11:17:17;95688.30;;;-0.52;77.95
52935;BME280;38802;50.198;19.796;2023-02-26T11:20:04;95690.23;;;-0.53;77.83
52935;BME280;38802;50.198;19.796;2023-02-26T11:22:45;95692.38;;;-0.63;77.12
52935;BME280;38802;50.198;19.796;2023-02-26T11:25:17;95699.52;;;-0.77;77.31
52935;BME280;38802;50.198;19.796;2023-02-26T11:27:48;95703.09;;;-0.80;77.81
52935;BME280;38802;50.198;19.796;2023-02-26T11:30:21;95703.73;;;-0.87;77.60
52935;BME280;38802;50.198;19.796;2023-02-26T11:32:56;95710.08;;;-0.87;77.88
52935;BME280;38802;50.198;19.796;2023-02-26T11:35:25;95713.16;;;-0.88;77.92
52935;BME280;38802;50.198;19.796;2023-02-26T11:37:58;95715.71;;;-0.88;77.76
52935;BME280;38802;50.198;19.796;2023-02-26T11:40:34;95718.71;;;-0.86;77.31
52935;BME280;38802;50.198;19.796;2023-02-26T11:43:07;95726.56;;;-0.86;78.08
52935;BME280;38802;50.198;19.796;2023-02-26T11:45:41;95730.87;;;-0.80;77.65
52935;BME280;38802;50.198;19.796;2023-02-26T11:48:14;95739.74;;;-0.76;78.21
52935;BME280;38802;50.198;19.796;2023-02-26T11:50:47;95752.31;;;-0.72;78.34
52935;BME280;38802;50.198;19.796;2023-02-26T11:53:34;95753.98;;;-0.74;78.22
52935;BME280;38802;50.198;19.796;2023-02-26T11:56:09;95759.91;;;-0.81;77.44
52935;BME280;38802;50.198;19.796;2023-02-26T11:58:39;95762.52;;;-0.81;77.96
52935;BME280;38802;50.198;19.796;2023-02-26T12:01:11;95766.11;;;-0.82;78.15
52935;BME280;38802;50.198;19.796;2023-02-26T12:03:44;95767.83;;;-0.82;77.89
52935;BME280;38802;50.198;19.796;2023-02-26T12:06:21;95765.58;;;-0.85;78.00
52935;BME280;38802;50.198;19.796;2023-02-26T12:08:52;95768.86;;;-0.87;77.86
52935;BME280;38802;50.198;19.796;2023-02-26T12:11:30;95770.77;;;-0.87;77.85
52935;BME280;38802;50.198;19.796;2023-02-26T12:17:16;95770.30;;;-0.89;77.57
52935;BME280;38802;50.198;19.796;2023-02-26T12:28:42;95776.73;;;-0.79;78.21
52935;BME280;38802;50.198;19.796;2023-02-26T12:34:33;95783.64;;;-0.74;78.33
52935;BME280;38802;50.198;19.796;2023-02-26T12:37:25;95784.81;;;-0.66;78.05
52935;BME280;38802;50.198;19.796;2023-02-26T12:43:29;95786.55;;;-0.52;78.49
52935;BME280;38802;50.198;19.796;2023-02-26T13:00:22;95835.67;;;-1.06;78.35
52935;BME280;38802;50.198;19.796;2023-02-26T13:05:32;95843.88;;;-1.43;78.93
52935;BME280;38802;50.198;19.796;2023-02-26T13:08:23;95846.95;;;-1.51;79.29
52935;BME280;38802;50.198;19.796;2023-02-26T13:17:25;95844.20;;;-1.42;79.68
52935;BME280;38802;50.198;19.796;2023-02-26T13:20:00;95852.49;;;-1.41;79.81
52935;BME280;38802;50.198;19.796;2023-02-26T13:22:34;95853.16;;;-1.36;79.54
52935;BME280;38802;50.198;19.796;2023-02-26T13:25:15;95858.73;;;-1.36;79.99
52935;BME280;38802;50.198;19.796;2023-02-26T13:27:49;95862.64;;;-1.35;79.88
52935;BME280;38802;50.198;19.796;2023-02-26T13:30:40;95868.02;;;-1.33;79.60
52935;BME280;38802;50.198;19.796;2023-02-26T13:33:23;95867.11;;;-1.32;79.59
52935;BME280;38802;50.198;19.796;2023-02-26T13:35:53;95873.59;;;-1.27;79.78
52935;BME280;38802;50.198;19.796;2023-02-26T13:38:37;95880.16;;;-1.25;79.57
52935;BME280;38802;50.198;19.796;2023-02-26T13:44:14;95894.63;;;-1.34;79.66
52935;BME280;38802;50.198;19.796;2023-02-26T13:47:00;95901.84;;;-1.31;79.42
52935;BME280;38802;50.198;19.796;2023-02-26T13:49:37;95902.80;;;-1.29;79.64
52935;BME280;38802;50.198;19.796;2023-02-26T13:52:25;95907.41;;;-1.25;79.52
52935;BME280;38802;50.198;19.796;2023-02-26T13:54:54;95913.05;;;-1.25;78.92
52935;BME280;38802;50.198;19.796;2023-02-26T13:57:24;95912.94;;;-1.27;79.09
52935;BME280;38802;50.198;19.796;2023-02-26T13:59:58;95914.16;;;-1.28;79.01
52935;BME280;38802;50.198;19.796;2023-02-26T14:15:16;95915.48;;;-1.18;79.16
52935;BME280;38802;50.198;19.796;2023-02-26T14:17:46;95917.33;;;-1.14;79.00
52935;BME280;38802;50.198;19.796;2023-02-26T14:20:17;95919.55;;;-1.14;78.62
52935;BME280;38802;50.198;19.796;2023-02-26T14:22:49;95922.34;;;-1.11;79.73
52935;BME280;38802;50.198;19.796;2023-02-26T14:25:36;95922.16;;;-1.03;79.33
52935;BME280;38802;50.198;19.796;2023-02-26T14:31:20;95928.39;;;-0.97;79.30
52935;BME280;38802;50.198;19.796;2023-02-26T14:36:32;95941.33;;;-0.92;79.18
52935;BME280;38802;50.198;19.796;2023-02-26T14:39:05;95946.95;;;-0.92;78.50
52935;BME280;38802;50.198;19.796;2023-02-26T14:41:39;95946.20;;;-0.95;78.21
52935;BME280;38802;50.198;19.796;2023-02-26T14:44:26;95944.08;;;-1.01;78.50
52935;BME280;38802;50.198;19.796;2023-02-26T14:46:56;95944.02;;;-1.03;78.53
52935;BME280;38802;50.198;19.796;2023-02-26T14:49:34;95942.60;;;-1.06;78.68
52935;BME280;38802;50.198;19.796;2023-02-26T15:05:28;95963.59;;;-1.19;78.06
52935;BME280;38802;50.198;19.796;2023-02-26T15:14:35;95981.21;;;-1.38;78.62
52935;BME280;38802;50.198;19.796;2023-02-26T15:17:36;95985.02;;;-1.31;78.89
52935;BME280;38802;50.198;19.796;2023-02-26T15:20:24;95986.13;;;-1.24;78.34
52935;BME280;38802;50.198;19.796;2023-02-26T15:25:50;95995.27;;;-1.32;78.30
52935;BME280;38802;50.198;19.796;2023-02-26T15:30:49;96003.71;;;-1.35;78.56
52935;BME280;38802;50.198;19.796;2023-02-26T15:33:19;96010.38;;;-1.43;78.48
52935;BME280;38802;50.198;19.796;2023-02-26T15:35:49;96016.40;;;-1.45;78.44
52935;BME280;38802;50.198;19.796;2023-02-26T15:38:19;96015.36;;;-1.44;78.54
52935;BME280;38802;50.198;19.796;2023-02-26T15:40:50;96012.88;;;-1.38;78.40
52935;BME280;38802;50.198;19.796;2023-02-26T15:43:25;96012.14;;;-1.36;78.73
52935;BME280;38802;50.198;19.796;2023-02-26T15:45:55;96011.95;;;-1.40;78.63
52935;BME280;38802;50.198;19.796;2023-02-26T15:48:36;96004.55;;;-1.34;78.61
52935;BME280;38802;50.198;19.796;2023-02-26T15:51:08;96003.09;;;-1.36;78.72
52935;BME280;38802;50.198;19.796;2023-02-26T15:53:40;96008.30;;;-1.38;78.77
52935;BME280;38802;50.198;19.796;2023-02-26T15:56:14;96014.05;;;-1.42;78.40
52935;BME280;38802;50.198;19.796;2023-02-26T15:58:53;96021.26;;;-1.47;78.49